»·PEaware :: WAT169 KLAS-KSAN

WAT169 :: KLAS-KSAN

FLIGHT INFORMATION

Flight Status: Arrived
Operator:
Walker Air Transport
More flights by this operator :: More flights under this callsign
Pilot: Marty P. (27464)
Aircraft: BOEING 737-800
(B738)
More flights by this aircraft type
Origin: KLAS McCarran Intl
United States
Destination: KSAN San Diego Intl-Lindbergh
United States
More flights between these airports :: More routes between these airports
Route: BOACH8 LVELL LUCKI1
File this flight plan on PilotEdge
Remarks:
Altitude:
(Current/Filed)
28,000ft
Speed:
(Current/Filed)
480kts
Departed: 02-Aug-20 08:22 AM
Arrived: 02-Aug-20 09:06 AM
Distance/Time
Traveled:
225nm/0:44
Distance/Time
To Go:
Arrived

Flight Plot

Page will automatically refresh every two minutes.

Flight plan parsing failed; only flown route is shown


Map Options




Map Legend


Flown Route
Filed Route
Departure Airport
Arrival Airport
Navaid (VOR, NDB)
Fix

Horizontal Profiles

Position Reports

Time Latitude Longitude Heading Altitude Ground
Speed
02-Aug-20 07:44 36.081009 -115.147654 61 2191ft 0kts
02-Aug-20 07:45 36.081009 -115.147654 61 2191ft 0kts
02-Aug-20 07:46 36.081009 -115.147654 61 2191ft 0kts
02-Aug-20 07:47 36.081009 -115.147654 61 2191ft 0kts
02-Aug-20 07:48 36.081009 -115.147654 61 2191ft 0kts
02-Aug-20 07:49 36.081009 -115.147654 61 2191ft 0kts
02-Aug-20 07:50 36.081009 -115.147654 61 2191ft 0kts
02-Aug-20 07:51 36.081009 -115.147654 61 2191ft 0kts
02-Aug-20 07:52 36.081009 -115.147654 61 2191ft 0kts
02-Aug-20 07:53 36.081009 -115.147654 61 2191ft 0kts
02-Aug-20 07:54 36.081009 -115.147654 61 2191ft 0kts
02-Aug-20 07:55 36.081009 -115.147654 61 2191ft 0kts
02-Aug-20 07:56 36.081009 -115.147655 61 2191ft 0kts
02-Aug-20 07:57 36.081009 -115.147655 61 2191ft 0kts
02-Aug-20 07:58 36.081009 -115.147655 61 2191ft 0kts
02-Aug-20 07:59 36.081009 -115.147655 61 2191ft 0kts
02-Aug-20 08:00 36.081009 -115.147655 61 2191ft 0kts
02-Aug-20 08:01 36.081009 -115.147655 61 2191ft 0kts
02-Aug-20 08:02 36.081009 -115.147655 61 2191ft 0kts
02-Aug-20 08:03 36.081009 -115.147655 61 2191ft 0kts
02-Aug-20 08:04 36.081009 -115.147655 61 2191ft 0kts
02-Aug-20 08:05 36.081009 -115.147655 61 2191ft 0kts
02-Aug-20 08:06 36.081009 -115.147655 61 2191ft 0kts
02-Aug-20 08:07 36.081009 -115.147655 61 2191ft 0kts
02-Aug-20 08:08 36.081009 -115.147655 61 2191ft 0kts
02-Aug-20 08:09 36.080931 -115.148210 107 2191ft 2kts
02-Aug-20 08:10 36.080933 -115.148396 155 2191ft 6kts
02-Aug-20 08:11 36.079275 -115.147457 155 2191ft 0kts
02-Aug-20 08:12 36.079269 -115.147454 155 2191ft 0kts
02-Aug-20 08:13 36.079265 -115.147452 155 2191ft 0kts
02-Aug-20 08:14 36.078338 -115.144505 94 2191ft 19kts
02-Aug-20 08:15 36.078267 -115.138097 90 2191ft 19kts
02-Aug-20 08:16 36.078273 -115.131761 89 2191ft 19kts
02-Aug-20 08:17 36.078279 -115.124851 90 2191ft 20kts
02-Aug-20 08:18 36.077595 -115.121679 128 2191ft 0kts
02-Aug-20 08:19 36.077281 -115.121363 158 2191ft 6kts
02-Aug-20 08:20 36.076436 -115.121903 270 2191ft 0kts
02-Aug-20 08:21 36.076458 -115.156784 269 2534ft 197kts
02-Aug-20 08:22 36.072237 -115.232022 246 4771ft 255kts
02-Aug-20 08:23 36.015995 -115.281382 199 7031ft 267kts
02-Aug-20 08:24 35.943951 -115.304938 186 9083ft 268kts
02-Aug-20 08:25 35.868269 -115.313686 184 11497ft 316kts
02-Aug-20 08:26 35.768486 -115.305126 176 13417ft 385kts
02-Aug-20 08:27 35.663649 -115.294980 181 16961ft 386kts
02-Aug-20 08:28 35.553963 -115.299485 183 19529ft 405kts
02-Aug-20 08:29 35.439244 -115.304093 183 21736ft 424kts
02-Aug-20 08:30 35.319088 -115.308848 183 23742ft 441kts
02-Aug-20 08:31 35.194829 -115.313748 183 25678ft 454kts
02-Aug-20 08:32 35.067313 -115.318764 183 27415ft 467kts
02-Aug-20 08:33 34.934109 -115.323998 183 28015ft 501kts
02-Aug-20 08:34 34.797191 -115.333597 194 28024ft 503kts
02-Aug-20 08:35 34.663990 -115.384056 200 28046ft 504kts
02-Aug-20 08:36 34.532060 -115.440352 201 28045ft 503kts
02-Aug-20 08:37 34.400625 -115.497321 201 28045ft 503kts
02-Aug-20 08:39 34.275993 -115.570597 211 28045ft 500kts
02-Aug-20 08:40 34.149619 -115.640517 204 28018ft 503kts
02-Aug-20 08:41 34.021578 -115.703254 203 27981ft 504kts
02-Aug-20 08:42 33.893191 -115.764578 203 27981ft 504kts
02-Aug-20 08:43 33.766171 -115.827081 203 27983ft 485kts
02-Aug-20 08:44 33.639568 -115.886488 202 27981ft 490kts
02-Aug-20 08:45 33.524422 -115.961445 226 26008ft 462kts
02-Aug-20 08:46 33.444955 -116.073254 234 24717ft 432kts
02-Aug-20 08:47 33.376664 -116.184970 235 20844ft 397kts
02-Aug-20 08:48 33.300694 -116.270799 209 18657ft 374kts
02-Aug-20 08:49 33.211137 -116.324126 207 16930ft 349kts
02-Aug-20 08:50 33.125143 -116.374432 207 15130ft 332kts
02-Aug-20 08:51 33.051399 -116.417448 208 14434ft 264kts
02-Aug-20 08:52 32.990586 -116.458761 221 13185ft 247kts
02-Aug-20 08:53 32.939485 -116.510972 222 11616ft 240kts
02-Aug-20 08:54 32.889485 -116.561350 222 9983ft 238kts
02-Aug-20 08:55 32.839572 -116.611594 222 8657ft 229kts
02-Aug-20 08:56 32.790122 -116.661343 221 8388ft 230kts
02-Aug-20 08:57 32.752701 -116.722124 242 6803ft 228kts
02-Aug-20 08:57 32.727202 -116.776524 241 6096ft 224kts
02-Aug-20 08:59 32.695953 -116.854234 251 5392ft 223kts
02-Aug-20 08:59 32.678871 -116.911425 252 4570ft 222kts
02-Aug-20 09:00 32.683291 -116.983724 285 3481ft 212kts
02-Aug-20 09:02 32.699835 -117.051059 285 2424ft 154kts
02-Aug-20 09:02 32.709712 -117.091725 286 1669ft 155kts
02-Aug-20 09:03 32.721556 -117.139779 287 1007ft 152kts
02-Aug-20 09:05 32.734193 -117.192199 285 27ft 55kts
02-Aug-20 09:05 32.734101 -117.195415 257 27ft 0kts
02-Aug-20 09:06 32.734531 -117.197950 286 27ft 15kts
02-Aug-20 09:07 32.734033 -117.199208 149 27ft 4kts
02-Aug-20 09:08 32.733674 -117.198943 149 27ft 0kts
02-Aug-20 09:09 32.733674 -117.198943 149 27ft 0kts
02-Aug-20 09:10 32.733674 -117.198943 149 27ft 0kts

Navigation Log

Ident Type
Flight plan parsing failed, navigation log unavailable